Aviation Digital Data Service (ADDS)

Output produced by METARs form (0433 UTC 26 September 2018)
found at http://www.aviationweather.gov/metar/data/
 
KNMM 260356Z 00000KT 10SM BKN065 OVC075 24/23 A3008 RMK AO2 SLP194 T02440233 $
KNMM 260256Z 00000KT 10SM SCT120 BKN250 25/23 A3007 RMK AO2 SLP190 T02500233 53016 $
KNMM 260156Z 14004KT 10SM FEW035 FEW140 SCT250 24/23 A3005 RMK AO2 SLP183 OCNL LTGIC DSNT E CB DSNT E T2 SET T02440233 $
KNMM 260056Z 00000KT 10SM FEW040 FEW100 SCT140 BKN250 25/23 A3004 RMK AO2 SLP177 OCNL LTGIC DSNT SW-NW CB DSNT SW-NW T2 SET T02500233 $
KNMM 252356Z 17003KT 10SM FEW040 SCT060 BKN100 BKN250 26/23 A3003 RMK AO2 SLP174 OCNL LTGIC DSNT SW-W CB DSNT SW-W T2 SET 60028 T02560233 10317 20250 53004 $
KNMM 252256Z 17004KT 10SM FEW040 SCT090 BKN250 28/23 A3000 RMK AO2 SLP166 CB DSNT SE T2 SET T02780233 $
KNMM 252156Z 18003KT 10SM FEW035 BKN085 BKN250 28/24 A3001 RMK AO2 SLP169 T2 SET T02780244 $
KNMM 252056Z COR 16003KT 10SM FEW065 BKN100 BKN250 26/24 A3001 RMK SLP170 T2 SET 60028 T02610244 58011
KNMM 251956Z 16003KT 10SM FEW075 OVC110 26/24 A3002 RMK AO2 RAE30 TSE35 SLP172 FRQ LTGICCA DSNT NE-SE CB DSNT NE-SE T1 SET P0005 T02560239 $
KNMM 251935Z 26003KT 10SM FEW075 BKN100 25/23 A3004 RMK AO2 RAE30 TSE35 FRQ LTGICCA DSNT N-NE CB DSNT N-NE T1 SET P0005 T02500233 $
KNMM 251856Z 28009KT 3SM +TSRA BR SCT025CB BKN035 OVC055 26/24 A3005 RMK AO2 RAB36 TSB26 SLP181 FRQ LTGICCG OHD TS OHD MOV NE T1 SET P0023 T02560239 $
KNMM 251845Z 25010G19KT 8SM -TSRA BKN025CB BKN030 OVC055 26/24 A3004 RMK AO2 RAB36 TSB26 FRQ LTGICCG OHD TS OHD MOV NE T1 SET P0010 T02610239 $
KNMM 251837Z 24011G19KT 200V270 2SM +TSRA SCT029CB BKN036 BKN047 30/23 A3004 RMK AO2 RAB36 TSB26 FRQ LTGICCG OHD TS OHD MOV NE T1 SET P0000 T03000233 $
KNMM 251826Z 16007KT 10SM TS SCT029CB BKN036 BKN047 31/24 A3003 RMK AO2 TSB26 OCNL LTGIC VC SW TS SW MOV NE T1 SET T03110239 $
KNMM 251756Z 16006KT 10SM SCT028 BKN036 BKN100 32/24 A3005 RMK AO2 SLP181 CB DSNT SW T2 SET T03170239 10317 20244 58013 $
KNMM 251703Z 14006KT 10SM FEW019 SCT026 BKN031 30/24 A3007 RMK AO2 T2 SET T03000239 $
KNMM 251656Z 14008KT 10SM FEW018 BKN022 OVC040 29/24 A3007 RMK AO2 SLP189 T02940239 $
KNMM 251646Z 16006KT 10SM BKN018 BKN025 OVC031 29/24 A3008 RMK AO2 T02890244 $
KNMM 251631Z VRB03KT 10SM SCT018 BKN025 OVC095 28/24 A3008 RMK AO2 T02830239 $
KNMM 251617Z 15005KT 10SM FEW012 BKN030 OVC095 28/24 A3008 RMK AO2 T02830239 $
KNMM 251613Z 15005KT 10SM SCT012 BKN017 OVC095 29/24 A3008 RMK AO2 T02890244 $
KNMM 251556Z 18005KT 10SM BKN012 OVC019 27/24 A3008 RMK AO2 SLP193 T02720239 $
KNMM 251552Z VRB04KT 10SM BKN012 OVC019 28/24 A3009 RMK AO2 $
KNMM 251456Z 15006KT 10SM OVC006 26/24 A3009 RMK AO2 SLP196 T02560239 51008 $
KNMM 251449Z 16006KT 10SM OVC006 26/24 A3009 RMK AO2 T02560239 $
KNMM 251356Z 15006KT 7SM OVC003 25/24 A3008 RMK AO2 SLP193 T02500239 $
KNMM 251344Z 14005KT 4SM BR OVC002 24/24 A3008 RMK AO2 T02440239 $
KNMM 251335Z 13006KT 2 1/2SM BR OVC002 24/24 A3008 RMK AO2 T02440239 $
KNMM 251323Z 12004KT 1 3/4SM BR OVC002 24/24 A3008 RMK AO2 T02440239 $
KNMM 251256Z 13005KT 2 1/2SM BR OVC003 24/24 A3008 RMK AO2 SLP191 T02440239 $
KNMM 251242Z 13005KT 3SM BR OVC003 24/24 A3007 RMK AO2 T02440239 $
KNMM 251228Z 12005KT 2 1/2SM BR OVC004 24/23 A3007 RMK AO2 CIG 002V008 T02440233 $
KNMM 251156Z 00000KT 10SM OVC006 24/24 A3007 RMK AO2 SLP187 T02440239 10250 20244 53010 $
KNMM 251056Z AUTO 14003KT 10SM OVC005 24/23 A3005 RMK AO2 SLP183 T02440233 $
KNMM 251048Z AUTO 00000KT 10SM OVC005 24/23 A3005 RMK AO2 T02440233 $
KNMM 251021Z AUTO VRB04KT 8SM OVC004 24/23 A3005 RMK AO2 T02440233 $
KNMM 250956Z AUTO 16004KT 9SM OVC005 24/23 A3004 RMK AO2 SLP180 T02440233 $
KNMM 250856Z AUTO 15004KT 10SM OVC007 24/23 A3004 RMK AO2 SLP177 T02440233 50001 $
KNMM 250756Z AUTO 14004KT 10SM OVC007 24/23 A3004 RMK AO2 SLP178 T02440228 $
KNMM 250656Z AUTO 13006KT 10SM OVC008 24/23 A3004 RMK AO2 SLP179 T02440228 $
KNMM 250556Z AUTO 14004KT 10SM OVC008 25/23 A3003 RMK AO2 CIG 007V011 SLP176 T02500233 10256 20239 403220228 51011 $
KNMM 250456Z 15008KT 10SM OVC008 25/23 A3003 RMK AO2 SLP174 T02500233 $
KNMM 250356Z 15007KT 10SM OVC007 25/23 A3003 RMK AO2 SLP174 T02500228 $
KNMM 250256Z 14007KT 10SM BKN007 BKN090 BKN250 24/23 A3000 RMK AO2 SLP166 T02440233 50009 $
KNMM 250248Z 14007KT 10SM SCT007 SCT037 BKN090 BKN250 24/23 A3000 RMK AO2 T02440233 $
KNMM 250156Z 13006KT 10SM FEW010 SCT037 BKN090 BKN250 25/23 A3000 RMK AO2 SLP166 T2 SET T02500233 $
KNMM 250056Z 12006KT 10SM BKN160 BKN250 25/23 A2999 RMK AO2 SLP162 T2 SET T02500233 $
KNMM 242356Z 12005KT 10SM FEW035 SCT090 BKN140 BKN250 26/23 A2997 RMK AO2 SLP157 OCNL LTGICCC DSNT NW CB DSNT NW T2 SET T02560233 10322 20256 51008 $
KNMM 242256Z 14007KT 10SM FEW040 SCT090 BKN150 BKN250 27/23 A2996 RMK AO2 SLP153 CB DSNT W T2 SET T02720228 $
KNMM 242156Z 14007KT 10SM FEW026 FEW040 BKN100 BKN160 27/23 A2996 RMK AO2 SLP152 T2 SET T02720233 $
KNMM 242056Z 14007KT 10SM FEW026 SCT040 BKN110 BKN250 29/23 A2995 RMK AO2 SLP148 T2 SET T02890233 56013 $
KNMM 241956Z 15009KT 10SM FEW032 SCT075 BKN130 BKN250 31/22 A2995 RMK AO2 SLP149 CB DSNT SW T2 SET T03060222 $
KNMM 241856Z 15011G17KT 10SM SCT032CB SCT075 BKN120 BKN250 31/23 A2997 RMK AO2 SLP153 CB OHD MOV N T2 SET T03060233 $
KNMM 241756Z VRB04KT 10SM SCT032 SCT120 BKN250 31/24 A2999 RMK AO2 RAB15E24 SLP161 T2 SET P0000 60000 T03110239 10311 20228 58015 $
KNMM 241656Z 16005KT 10SM SCT025 BKN075 BKN250 29/23 A3001 RMK AO2 SLP169 T02940233 $
KNMM 241614Z 18005KT 10SM FEW022 BKN032 BKN250 30/24 A3002 RMK AO2 T03000239 $
KNMM 241556Z VRB03KT 10SM BKN019 BKN030 BKN250 29/24 A3003 RMK AO2 SLP174 T02940239 $
KNMM 241536Z VRB06KT 10SM SCT019 BKN023 BKN031 BKN250 29/24 A3003 RMK AO2 T02940239 $
KNMM 241456Z 16007KT 10SM SCT011 BKN250 28/24 A3003 RMK AO2 SLP176 T02830239 51009 $
KNMM 241427Z 16006KT 10SM SCT009 BKN250 27/23 A3003 RMK AO2 T02670233 $
KNMM 241356Z 13007KT 10SM BKN008 BKN210 26/23 A3002 RMK AO2 SLP172 T02610233 $
KNMM 241324Z 14006KT 10SM BKN005 BKN210 25/23 A3002 RMK AO2 T02500228 $
KNMM 241312Z 13005KT 10SM SCT005 BKN210 24/23 A3002 RMK AO2 T02440228 $
KNMM 241256Z 12004KT 10SM BKN210 24/23 A3002 RMK AO2 SLP171 T02390228 $
KNMM 241156Z 11004KT 8SM BKN180 23/22 A3000 RMK AO2 SLP166 T02280222 10244 20228 51014 $
KNMM 241056Z AUTO 12004KT 10SM CLR 23/22 A2999 RMK AO2 SLP162 T02280222 $
KNMM 240956Z AUTO 11003KT 10SM CLR 23/22 A2998 RMK AO2 SLP157 T02280222 $
KNMM 240856Z AUTO 13003KT 10SM CLR 23/22 A2996 RMK AO2 SLP153 T02330222 57004 $
KNMM 240756Z AUTO 00000KT 10SM CLR 23/22 A2997 RMK AO2 SLP154 T02330222 $
KNMM 240656Z AUTO 12004KT 10SM SCT095 24/22 A2997 RMK AO2 SLP156 T02390222 $
KNMM 240556Z AUTO 00000KT 10SM SCT090 24/22 A2998 RMK AO2 SLP157 T02440222 10278 20244 403330217 58000 $
KNMM 240456Z AUTO 16003KT 10SM CLR 24/22 A2999 RMK AO2 SLP160 T02440222 $
KNMM 240356Z AUTO 12003KT 10SM CLR 25/22 A2998 RMK AO2 SLP159 T02500222 $
KNMM 240256Z AUTO 16004KT 10SM FEW065 26/22 A2998 RMK AO2 SLP158 T02610222 51014 $
KNMM 240156Z AUTO 13004KT 10SM FEW048 27/23 A2997 RMK AO2 SLP155 T02670228 $
KNMM 240056Z 12004KT 10SM BKN280 26/23 A2995 RMK AO2 SLP150 T02610233 $
KNMM 232356Z 13005KT 10SM BKN280 27/23 A2994 RMK AO2 SLP145 T02720228 10333 20272 53006 $
KNMM 232256Z 12005KT 10SM FEW045 BKN280 29/23 A2993 RMK AO2 SLP141 T02940228 $
KNMM 232156Z 11006KT 10SM FEW045 BKN280 31/22 A2992 RMK AO2 SLP136 T03110217
KNMM 232056Z 14006KT 10SM SCT047 SCT280 32/22 A2992 RMK AO2 SLP138 T03220217 56027
KNMM 232008Z VRB05KT 10SM SCT047 33/21 A2993 RMK AO2 T03280211
KNMM 231956Z AUTO 12006KT 10SM FEW048 33/21 A2994 RMK AO2 SLP143 T03280211
KNMM 231756Z AUTO 15008KT 10SM FEW042 FEW050 32/21 A3000 RMK AO2 SLP165 T03220211 10322 20217 58010
KNMM 231656Z AUTO 18006KT 10SM FEW032 31/22 A3002 RMK AO2 SLP171 T03110222
KNMM 231556Z AUTO 14006KT 10SM SCT024 31/23 A3003 RMK AO2 SLP174 T03060233
KNMM 231456Z AUTO VRB04KT 10SM CLR 29/23 A3003 RMK AO2 SLP175 T02890233 51010
KNMM 231356Z AUTO 14005KT 10SM CLR 26/23 A3002 RMK AO2 SLP172 T02610233
KNMM 231334Z AUTO VRB03KT 10SM FEW001 24/23 A3002 RMK AO2 T02440228
KNMM 231320Z AUTO 00000KT 7SM BKN001 23/23 A3002 RMK AO2 T02330228 $
KNMM 231313Z AUTO 00000KT 2 1/2SM BR OVC001 23/23 A3002 RMK AO2 T02330228 $
KNMM 231259Z AUTO 00000KT 1SM BR VV001 23/22 A3002 RMK AO2 T02280222 $
KNMM 231256Z AUTO 00000KT 1/2SM FG VV001 23/22 A3002 RMK AO2 SLP171 T02280222 $
KNMM 231252Z AUTO 09003KT 1/2SM FG VV002 23/22 A3002 RMK AO2 $
KNMM 231246Z AUTO 00000KT 1/4SM FG VV001 22/22 A3002 RMK AO2 T02220217 $
KNMM 231237Z AUTO 10003KT 1/2SM FG VV001 22/22 A3001 RMK AO2 T02220217 $
KNMM 231220Z AUTO 00000KT 1/4SM FG OVC001 22/22 A3001 RMK AO2 T02220217 $
KNMM 231217Z AUTO 00000KT 3/4SM BR OVC001 22/22 A3001 RMK AO2 VIS 1/4V4 T02220217 $
KNMM 231202Z AUTO 00000KT 3SM BR BKN002 22/21 A3000 RMK AO2 T02170211 $
KNMM 231156Z AUTO 00000KT 1 1/4SM BR FEW002 22/21 A3000 RMK AO2 SLP165 7//// T02170211 10239 20217 53009 $
KNMM 231148Z AUTO 00000KT 1 3/4SM BR CLR 22/21 A3000 RMK AO2 CIG 001 SOUTH T02220211 $
KNMM 231125Z AUTO 00000KT 7SM FEW002 22/21 A2999 RMK AO2 VIS 3/4 SOUTH T02220211 $
KNMM 231056Z AUTO 00000KT 6SM BR CLR 22/21 A2998 RMK AO2 VIS 3/4 SOUTH SLP160 T02170211 $
KNMM 230956Z AUTO 00000KT 6SM BR CLR 22/21 A2998 RMK AO2 VIS 1/2 SOUTH SLP158 T02170211 $
KNMM 230856Z AUTO 00000KT 9SM CLR 23/22 A2997 RMK AO2 SLP156 T02280217 57006 $
KNMM 230756Z AUTO 08003KT 10SM CLR 23/22 A2998 RMK AO2 SLP157 T02330222 $
KNMM 230656Z AUTO 00000KT 10SM CLR 24/22 A2999 RMK AO2 SLP162 T02390222 $
KNMM 230556Z AUTO 00000KT 10SM CLR 24/22 A2999 RMK AO2 SLP163 T02390217 10283 20228 403330222 57008 $
KNMM 230456Z AUTO 09003KT 10SM CLR 23/22 A3000 RMK AO2 SLP164 T02330217 $
TAF AMD KNMM 2602/2623 14004KT 8000 BR FEW015 SCT140 BKN250 QNH3001INS 
     FM260600 15004KT 6000 BR SCT006 BKN015 BKN120 BKN250 QNH3002INS 
     FM260900 16004KT 2400 BR OVC004 QNH3002INS 
     FM261100 17005KT 4800 BR OVC005 QNH3003INS 
     FM261300 20006KT 9999 VCSH BKN007 OVC015 QNH3003INS 
     FM261600 22008KT 9000 -SHRA VCTS SCT015CB BKN025 OVC040 QNH2999INS 
     TEMPO 2617/2621 VRB15G25KT 1200 +TSRA BKN015CB OVC025 AUTOMATED SENSOR
METWATCH 2605 TIL 2612 T22/2611Z T27/2616Z AMD 0231 FN20037